Aérodrome :
LOGIN :

S'inscrire | Disclaimer

   EN    FR    IT 

 










Légende :    VFR   VFR Marginal   IFR   IFR Intensif   IFR Très Intensif
Visi : 
Plafond : 
>= 8 km
>= 3000ft
5 à 8 km
1000 à 3000 ft
1500m à 5 km
500 à 1000 ft
800 à 1500m
200 à 500 ft
< 800m
< 200 ft
Symboles :   Orages  Brouillard  Fortes neiges  Fortes précipitations  Vent > 20 kt
SIGMETs :   Divers  Orages  Givrage  Turbulence  Onde Orograph.  Cendres Volcan.







- Altitude de l'aérodrome : 20 ft


EBFN - Koksijde

DERNIER METAR :
  • 201134Z AUTO 02008KT 7000 NCD 15/11 Q1023 WHT

METARs EXPIRÉS :
  • 201125Z AUTO 01008KT 8000 NCD 15/11 Q1023 BLU
  • 201105Z AUTO 02008KT 7000 NCD 15/11 Q1023 WHT
  • 201055Z AUTO 02008KT 8000 NCD 15/11 Q1023 BLU
  • 201025Z AUTO 01007KT 7000 NCD 14/11 Q1023 WHT
  • 200955Z AUTO 36007KT 6000 FEW014/// 14/11 Q1024 WHT
  • 200925Z AUTO 02006KT 6000 FEW012/// 13/10 Q1024 WHT
  • 200855Z AUTO 02005KT 6000 BKN011/// 12/10 Q1024 GRN

TAF TAF EBFN
Valide du 20 à 10h jusqu'au 20 à 19h UTC


200841Z 2010/2019 02008KT 9999 FEW015
TEMPO 2010/2012 6000 SCT015
PROB30
TEMPO 2010/2011 4000 BR BKN012
BECMG 2011/2013 06010KT
BECMG 2015/2017 04015KT
Pas de NOTAMs connus pour ce terrain.



MET'MAP, la Météo Aéronautique d'un coup d'oeil ! - Copyright ORBIFLY Décembre 2007 - Disclaimer

ORBIFLY MET'MAP TEAM :

Programmation & Développement : Alexandra Zaïnal
Conception & Développement : Baudouin d'Aumeries
Co-Programmation & Développement : Marc-Olivier Méhu
Soutien technique & logistique : Manuel Goepfert

Contact : metmap@orbifly.com




SOURCES & CREDITS :

   NOAA